createdAt,value
2023-02-11T00:02:06.953Z,38.97
2023-02-11T00:04:50.027Z,46.43
2023-02-11T00:07:35.736Z,37.13
2023-02-11T00:10:18.861Z,36.33
2023-02-11T00:13:02.099Z,49.17
2023-02-11T00:15:45.227Z,33.50
2023-02-11T00:18:29.254Z,42.10
2023-02-11T00:21:14.775Z,36.97
2023-02-11T00:24:02.260Z,35.83
2023-02-11T00:26:46.069Z,39.73
2023-02-11T00:29:29.182Z,36.50
2023-02-11T00:32:12.531Z,39.40
2023-02-11T00:34:55.691Z,28.60
2023-02-11T00:37:38.749Z,41.23
2023-02-11T00:40:23.276Z,42.67
2023-02-11T00:43:06.373Z,35.63
2023-02-11T00:45:49.861Z,35.90
2023-02-11T00:48:33.630Z,29.63
2023-02-11T00:51:16.851Z,43.13
2023-02-11T00:53:59.822Z,39.97
2023-02-11T00:56:44.319Z,33.10
2023-02-11T00:59:27.382Z,33.57
2023-02-11T01:02:10.414Z,36.63
2023-02-11T01:04:53.513Z,28.17
2023-02-11T01:07:36.664Z,26.93
2023-02-11T01:10:19.946Z,25.83
2023-02-11T01:13:06.601Z,31.37
2023-02-11T01:15:50.179Z,30.07
2023-02-11T01:18:33.584Z,32.37
2023-02-11T01:21:16.634Z,28.27
2023-02-11T01:23:59.654Z,34.57
2023-02-11T01:26:42.741Z,33.97
2023-02-11T01:29:27.282Z,31.13
2023-02-11T01:32:10.368Z,38.40
2023-02-11T01:34:53.471Z,27.33
2023-02-11T01:37:36.521Z,35.83
2023-02-11T01:40:19.840Z,33.53
2023-02-11T01:43:02.815Z,28.27
2023-02-11T01:46:00.599Z,35.13
2023-02-11T01:48:45.533Z,30.03
2023-02-11T01:51:34.049Z,30.37
2023-02-11T01:54:43.730Z,31.43
2023-02-11T01:57:29.697Z,37.50
2023-02-11T02:00:15.515Z,44.03
2023-02-11T02:03:04.133Z,43.37
2023-02-11T02:05:52.695Z,39.50
2023-02-11T02:08:40.299Z,34.10
2023-02-11T02:11:23.935Z,32.53
2023-02-11T02:14:07.100Z,26.67
2023-02-11T02:16:50.425Z,34.33
2023-02-11T02:20:08.912Z,28.80
2023-02-11T02:23:36.448Z,27.40
2023-02-11T02:26:58.027Z,32.10
2023-02-11T02:30:04.450Z,29.27
2023-02-11T02:33:22.274Z,24.10
2023-02-11T02:36:15.306Z,33.03
2023-02-11T02:39:02.802Z,27.93
2023-02-11T02:41:47.953Z,26.07
2023-02-11T02:44:32.181Z,34.27
2023-02-11T02:47:15.245Z,29.47
2023-02-11T02:49:59.822Z,26.70
2023-02-11T02:52:53.748Z,28.47
2023-02-11T02:55:48.463Z,27.20
2023-02-11T02:59:07.866Z,28.20
2023-02-11T03:02:04.073Z,35.43
2023-02-11T03:04:54.432Z,30.93
2023-02-11T03:07:46.014Z,31.93
2023-02-11T03:10:34.356Z,32.73
2023-02-11T03:13:20.984Z,27.73
2023-02-11T03:16:09.545Z,31.27
2023-02-11T03:18:58.391Z,36.57
2023-02-11T03:21:43.722Z,28.63
2023-02-11T03:24:32.254Z,32.17
2023-02-11T03:27:22.126Z,28.00
2023-02-11T03:30:11.588Z,26.93
2023-02-11T03:32:59.304Z,26.80
2023-02-11T03:35:49.108Z,30.43
2023-02-11T03:38:36.175Z,25.43
2023-02-11T03:41:24.575Z,30.73
2023-02-11T03:44:08.723Z,27.77
2023-02-11T03:46:53.524Z,30.53
2023-02-11T03:49:39.708Z,27.50
2023-02-11T03:52:26.049Z,28.33
2023-02-11T03:55:13.574Z,26.13
2023-02-11T03:57:58.438Z,30.07
2023-02-11T04:00:43.500Z,25.97
2023-02-11T04:03:26.614Z,29.13
2023-02-11T04:06:10.148Z,38.70
2023-02-11T04:08:53.322Z,31.70
2023-02-11T04:11:36.396Z,29.43
2023-02-11T04:14:20.800Z,31.00
2023-02-11T04:17:04.009Z,27.40
2023-02-11T04:19:47.083Z,29.17
2023-02-11T04:22:30.703Z,24.17
2023-02-11T04:25:13.818Z,26.90
2023-02-11T04:27:57.115Z,33.97
2023-02-11T04:30:41.730Z,29.47
2023-02-11T04:33:25.024Z,24.40
2023-02-11T04:36:09.038Z,26.90
2023-02-11T04:38:52.081Z,25.80
2023-02-11T04:41:35.511Z,29.07
2023-02-11T04:44:18.621Z,32.23
2023-02-11T04:47:03.307Z,31.93
2023-02-11T04:49:47.548Z,34.80
2023-02-11T04:52:30.618Z,31.27
2023-02-11T04:55:13.864Z,35.50
2023-02-11T04:57:56.926Z,32.40
2023-02-11T05:00:40.011Z,27.60
2023-02-11T05:03:24.467Z,26.80
2023-02-11T05:06:08.374Z,31.03
2023-02-11T05:08:51.635Z,28.33
2023-02-11T05:11:34.733Z,26.87
2023-02-11T05:14:17.843Z,31.20
2023-02-11T05:17:00.969Z,29.20
2023-02-11T05:19:45.546Z,26.40
2023-02-11T05:22:28.702Z,30.37
2023-02-11T05:25:11.913Z,26.53
2023-02-11T05:27:55.031Z,31.00
2023-02-11T05:30:38.193Z,27.93
2023-02-11T05:33:21.372Z,26.63
2023-02-11T05:36:08.900Z,26.17
2023-02-11T05:38:52.085Z,27.93
2023-02-11T05:41:35.120Z,24.37
2023-02-11T05:44:18.096Z,27.27
2023-02-11T05:47:01.584Z,31.93
2023-02-11T05:49:44.612Z,28.23
2023-02-11T05:52:29.098Z,34.90
2023-02-11T05:55:12.213Z,52.87
2023-02-11T05:57:55.206Z,34.60
2023-02-11T06:00:38.587Z,41.17
2023-02-11T06:03:21.722Z,38.50
2023-02-11T06:06:05.147Z,37.27
2023-02-11T06:08:49.629Z,41.03
2023-02-11T06:11:32.617Z,40.37
2023-02-11T06:14:15.698Z,42.27
2023-02-11T06:16:58.791Z,47.00
2023-02-11T06:19:41.935Z,48.37
2023-02-11T06:22:25.044Z,48.00
2023-02-11T06:25:11.136Z,64.10
2023-02-11T06:27:54.237Z,59.10
2023-02-11T06:30:37.972Z,58.87
2023-02-11T06:33:21.132Z,58.67
2023-02-11T06:36:05.116Z,62.57
2023-02-11T06:38:48.812Z,54.97
2023-02-11T06:41:33.789Z,47.63
2023-02-11T06:44:16.873Z,62.20
2023-02-11T06:47:00.073Z,55.43
2023-02-11T06:49:43.099Z,56.10
2023-02-11T06:52:26.160Z,50.77
2023-02-11T06:55:09.910Z,49.97
2023-02-11T06:57:54.616Z,53.83
2023-02-11T07:00:38.366Z,61.43
2023-02-11T07:03:21.751Z,63.60
2023-02-11T07:06:05.906Z,62.10
2023-02-11T07:08:49.638Z,51.87
2023-02-11T07:11:33.698Z,55.07
2023-02-11T07:14:18.664Z,48.40
2023-02-11T07:17:01.709Z,42.20
2023-02-11T07:19:44.849Z,44.60
2023-02-11T07:22:27.977Z,55.83
2023-02-11T07:25:11.104Z,52.10
2023-02-11T07:27:54.166Z,47.53
2023-02-11T07:30:38.754Z,55.60
2023-02-11T07:33:21.962Z,52.90
2023-02-11T07:36:06.735Z,53.47
2023-02-11T07:38:50.558Z,51.67
2023-02-11T07:41:37.710Z,52.23
2023-02-11T07:44:21.269Z,57.10
2023-02-11T07:47:06.346Z,54.50
2023-02-11T07:49:49.372Z,50.13
2023-02-11T07:52:32.747Z,55.47
2023-02-11T07:55:15.963Z,53.40
2023-02-11T07:57:59.339Z,56.67
2023-02-11T08:00:42.474Z,54.47
2023-02-11T08:03:27.235Z,49.77
2023-02-11T08:06:12.890Z,54.50
2023-02-11T08:08:56.545Z,47.47
2023-02-11T08:11:39.848Z,51.33
2023-02-11T08:14:23.084Z,60.93
2023-02-11T08:17:06.738Z,54.50
2023-02-11T08:19:51.781Z,43.93
2023-02-11T08:22:35.826Z,47.47
2023-02-11T08:25:19.150Z,45.20
2023-02-11T08:28:02.268Z,50.57
2023-02-11T08:30:45.430Z,48.77
2023-02-11T08:33:29.063Z,46.50
2023-02-11T08:36:15.760Z,55.47
2023-02-11T08:39:17.513Z,45.07
2023-02-11T08:42:02.132Z,47.23
2023-02-11T08:44:45.270Z,40.53
2023-02-11T08:47:28.397Z,43.47
2023-02-11T08:50:11.629Z,43.03
2023-02-11T08:52:56.217Z,42.53
2023-02-11T08:55:39.348Z,52.00
2023-02-11T08:58:23.681Z,45.17
2023-02-11T09:01:11.330Z,44.73
2023-02-11T09:03:55.398Z,43.87
2023-02-11T09:06:38.477Z,46.07
2023-02-11T09:09:22.989Z,45.33
2023-02-11T09:12:06.698Z,45.73
2023-02-11T09:14:50.133Z,46.17
2023-02-11T09:17:33.227Z,50.63
2023-02-11T09:20:16.257Z,48.60
2023-02-11T09:23:00.622Z,46.97
2023-02-11T09:25:45.149Z,49.80
2023-02-11T09:28:28.253Z,51.47
2023-02-11T09:31:13.169Z,42.73
2023-02-11T09:33:58.422Z,50.93
2023-02-11T09:36:42.026Z,46.70
2023-02-11T09:39:26.758Z,43.80
2023-02-11T09:42:40.607Z,47.23
2023-02-11T09:45:26.347Z,41.67
2023-02-11T09:48:16.023Z,44.73
2023-02-11T09:51:01.631Z,61.67
2023-02-11T09:53:45.054Z,48.53
2023-02-11T09:56:29.833Z,49.10
2023-02-11T09:59:17.619Z,50.90
2023-02-11T10:02:05.726Z,50.63
2023-02-11T10:05:23.089Z,57.67
2023-02-11T10:08:15.890Z,54.30
2023-02-11T10:11:05.607Z,49.70
2023-02-11T10:13:56.268Z,44.43
2023-02-11T10:16:54.151Z,47.97
2023-02-11T10:19:50.639Z,39.77
2023-02-11T10:22:39.139Z,38.97
2023-02-11T10:25:26.214Z,46.20
2023-02-11T10:28:15.707Z,36.77
2023-02-11T10:31:01.182Z,35.43
2023-02-11T10:33:49.094Z,41.13
2023-02-11T10:36:35.753Z,40.33
2023-02-11T10:39:20.444Z,35.27
2023-02-11T10:42:08.924Z,43.07
2023-02-11T10:45:00.870Z,40.57
2023-02-11T10:47:44.534Z,40.17
2023-02-11T10:50:32.647Z,34.07
2023-02-11T10:53:21.208Z,32.73
2023-02-11T10:56:05.647Z,37.10
2023-02-11T10:58:59.477Z,32.90
2023-02-11T11:01:47.841Z,30.77
2023-02-11T11:04:45.661Z,32.37
2023-02-11T11:07:32.133Z,33.40
2023-02-11T11:10:30.510Z,30.17
2023-02-11T11:13:32.336Z,30.43
2023-02-11T11:16:23.973Z,37.20
2023-02-11T11:19:21.801Z,32.27
2023-02-11T11:22:06.264Z,30.87
2023-02-11T11:24:56.071Z,32.77
2023-02-11T11:27:39.726Z,50.67
2023-02-11T11:30:26.502Z,38.27
2023-02-11T11:33:21.079Z,26.00
2023-02-11T11:36:08.832Z,28.73
2023-02-11T11:38:56.087Z,29.80
2023-02-11T11:41:52.661Z,29.33
2023-02-11T11:44:37.495Z,32.33
2023-02-11T11:47:41.096Z,27.00
2023-02-11T11:50:29.730Z,27.90
2023-02-11T11:53:17.632Z,30.07
2023-02-11T11:56:04.895Z,31.97
2023-02-11T11:58:50.407Z,31.60
2023-02-11T12:01:45.999Z,32.40
2023-02-11T12:04:51.864Z,33.80
2023-02-11T12:07:49.910Z,28.27
2023-02-11T12:10:49.843Z,31.57
2023-02-11T12:13:50.165Z,35.57
2023-02-11T12:16:45.932Z,36.97
2023-02-11T12:19:49.751Z,32.53
2023-02-11T12:22:46.562Z,38.63
2023-02-11T12:25:40.916Z,33.30
2023-02-11T12:28:32.948Z,36.40
2023-02-11T12:31:29.477Z,37.67
2023-02-11T12:34:30.689Z,29.57
2023-02-11T12:37:24.999Z,29.67
2023-02-11T12:40:17.119Z,32.63
2023-02-11T12:43:18.328Z,33.33
2023-02-11T12:46:30.021Z,36.00
2023-02-11T12:49:38.234Z,28.83
2023-02-11T12:52:34.633Z,31.47
2023-02-11T12:55:23.754Z,27.03
2023-02-11T12:58:14.245Z,28.40
2023-02-11T13:01:04.468Z,32.93
2023-02-11T13:03:52.656Z,29.87
2023-02-11T13:06:41.631Z,27.20
2023-02-11T13:09:31.616Z,24.73
2023-02-11T13:12:33.293Z,26.60
2023-02-11T13:15:17.175Z,29.27
2023-02-11T13:18:05.937Z,29.20
2023-02-11T13:20:54.734Z,32.90
2023-02-11T13:23:45.198Z,30.33
2023-02-11T13:26:33.853Z,28.13
2023-02-11T13:29:27.629Z,39.80
2023-02-11T13:32:12.734Z,29.20
2023-02-11T13:35:03.407Z,28.70
2023-02-11T13:37:49.220Z,27.03
2023-02-11T13:40:36.385Z,28.17
2023-02-11T13:43:24.651Z,30.27
2023-02-11T13:46:10.992Z,33.23
2023-02-11T13:48:55.174Z,30.73
2023-02-11T13:51:42.394Z,27.87
2023-02-11T13:54:31.340Z,28.70
2023-02-11T13:57:40.866Z,23.70
2023-02-11T14:00:51.915Z,28.50
2023-02-11T14:03:54.789Z,26.13
2023-02-11T14:07:00.732Z,29.03
2023-02-11T14:09:43.908Z,27.57
2023-02-11T14:12:36.514Z,27.10
2023-02-11T14:15:29.270Z,25.80
2023-02-11T14:18:40.385Z,23.63
2023-02-11T14:21:32.918Z,28.13
2023-02-11T14:24:52.157Z,25.47
2023-02-11T14:27:46.042Z,22.17
2023-02-11T14:30:46.274Z,26.23
2023-02-11T14:33:50.783Z,24.67
2023-02-11T14:37:02.300Z,23.27
2023-02-11T14:39:57.603Z,23.30
2023-02-11T14:42:40.874Z,34.17
2023-02-11T14:45:28.250Z,26.13
2023-02-11T14:48:17.933Z,32.47
2023-02-11T14:51:06.560Z,25.83
2023-02-11T14:53:53.070Z,30.50
2023-02-11T14:56:37.107Z,28.87
2023-02-11T14:59:23.685Z,27.17
2023-02-11T15:02:22.859Z,25.50
2023-02-11T15:05:19.877Z,23.27
2023-02-11T15:08:08.431Z,30.60
2023-02-11T15:10:56.808Z,27.47
2023-02-11T15:13:47.577Z,30.13
2023-02-11T15:16:31.169Z,30.83
2023-02-11T15:19:27.336Z,35.83
2023-02-11T15:22:20.788Z,39.90
2023-02-11T15:25:10.813Z,57.77
2023-02-11T15:27:56.683Z,62.07
2023-02-11T15:30:40.021Z,71.20
2023-02-11T15:33:25.480Z,58.27
2023-02-11T15:36:12.278Z,46.93
2023-02-11T15:39:21.452Z,37.83
2023-02-11T15:42:26.907Z,33.57
2023-02-11T15:45:13.666Z,35.13
2023-02-11T15:48:00.981Z,42.60
2023-02-11T15:50:50.270Z,36.03
2023-02-11T15:53:40.620Z,36.00
2023-02-11T15:56:30.788Z,38.50
2023-02-11T15:59:19.610Z,41.47
2023-02-11T16:02:09.616Z,38.10
2023-02-11T16:04:55.724Z,51.47
2023-02-11T16:07:41.732Z,71.40
2023-02-11T16:10:28.073Z,54.23
2023-02-11T16:13:21.219Z,66.97
2023-02-11T16:16:07.196Z,45.17
2023-02-11T16:19:04.375Z,50.43
2023-02-11T16:21:50.336Z,56.73
2023-02-11T16:24:35.781Z,55.87
2023-02-11T16:27:23.999Z,59.50
2023-02-11T16:30:25.412Z,63.93
2023-02-11T16:33:10.705Z,55.27
2023-02-11T16:35:53.864Z,53.97
2023-02-11T16:38:37.349Z,59.67
2023-02-11T16:41:20.381Z,57.63
2023-02-11T16:44:03.968Z,72.57
2023-02-11T16:46:49.177Z,140.53
2023-02-11T16:49:36.073Z,110.87
2023-02-11T16:52:20.162Z,185.00
2023-02-11T16:55:05.255Z,303.27
2023-02-11T16:57:48.451Z,150.57
2023-02-11T17:00:31.827Z,158.80
2023-02-11T17:03:23.650Z,96.60
2023-02-11T17:06:08.027Z,68.03
2023-02-11T17:08:51.248Z,48.33
2023-02-11T17:11:34.704Z,61.20
2023-02-11T17:14:18.364Z,42.07
2023-02-11T17:17:01.770Z,34.90
2023-02-11T17:19:47.962Z,34.00
2023-02-11T17:22:31.041Z,30.97
2023-02-11T17:25:14.328Z,33.60
2023-02-11T17:27:57.416Z,37.40
2023-02-11T17:30:43.863Z,34.30
2023-02-11T17:33:27.418Z,32.57
2023-02-11T17:36:12.521Z,34.27
2023-02-11T17:38:56.370Z,30.40
2023-02-11T17:41:40.127Z,38.33
2023-02-11T17:44:23.343Z,36.60
2023-02-11T17:47:07.348Z,32.77
2023-02-11T17:49:50.689Z,32.57
2023-02-11T17:52:36.724Z,40.90
2023-02-11T17:55:22.265Z,41.90
2023-02-11T17:58:07.674Z,34.83
2023-02-11T18:00:51.073Z,43.33
2023-02-11T18:03:34.492Z,38.93
2023-02-11T18:06:17.571Z,36.90
2023-02-11T18:09:04.388Z,37.83
2023-02-11T18:11:48.587Z,39.93
2023-02-11T18:14:31.784Z,36.60
2023-02-11T18:17:14.905Z,38.00
2023-02-11T18:19:58.523Z,35.50
2023-02-11T18:22:44.344Z,41.60
2023-02-11T18:25:30.094Z,38.93
2023-02-11T18:28:13.365Z,45.00
2023-02-11T18:30:58.696Z,46.00
2023-02-11T18:33:42.949Z,40.27
2023-02-11T18:36:26.185Z,41.67
2023-02-11T18:39:10.112Z,47.40
2023-02-11T18:41:56.919Z,45.47
2023-02-11T18:44:40.441Z,48.03
2023-02-11T18:47:23.498Z,40.83
2023-02-11T18:50:08.501Z,39.77
2023-02-11T18:52:51.973Z,36.30
2023-02-11T18:55:35.190Z,37.60
2023-02-11T18:58:21.242Z,42.10
2023-02-11T19:01:12.176Z,35.23
2023-02-11T19:03:56.287Z,94.43
2023-02-11T19:06:40.001Z,115.50
2023-02-11T19:09:24.266Z,123.53
2023-02-11T19:12:08.749Z,114.47
2023-02-11T19:14:53.644Z,85.93
2023-02-11T19:17:36.909Z,82.47
2023-02-11T19:20:22.801Z,80.33
2023-02-11T19:23:05.909Z,76.57
2023-02-11T19:25:49.715Z,80.40
2023-02-11T19:28:33.079Z,93.70
2023-02-11T19:31:17.855Z,96.50
2023-02-11T19:34:01.366Z,98.67
2023-02-11T19:36:44.922Z,98.00
2023-02-11T19:39:28.671Z,94.83
2023-02-11T19:42:12.286Z,99.93
2023-02-11T19:44:55.557Z,92.67
2023-02-11T19:47:40.193Z,112.47
2023-02-11T19:50:23.595Z,92.33
2023-02-11T19:53:06.868Z,69.13
2023-02-11T19:55:51.079Z,54.40
2023-02-11T19:58:34.635Z,75.37
2023-02-11T20:01:22.069Z,115.17
2023-02-11T20:04:07.223Z,108.13
2023-02-11T20:06:50.646Z,130.20
2023-02-11T20:09:34.117Z,127.47
2023-02-11T20:12:17.291Z,142.60
2023-02-11T20:15:00.347Z,137.70
2023-02-11T20:17:43.807Z,126.83
2023-02-11T20:20:28.933Z,161.37
2023-02-11T20:23:12.025Z,135.53
2023-02-11T20:25:55.387Z,155.60
2023-02-11T20:28:39.209Z,142.53
2023-02-11T20:31:23.901Z,136.17
2023-02-11T20:34:07.387Z,140.90
2023-02-11T20:36:52.963Z,160.70
2023-02-11T20:39:37.570Z,111.67
2023-02-11T20:42:21.849Z,95.90
2023-02-11T20:45:05.153Z,90.83
2023-02-11T20:47:48.358Z,52.53
2023-02-11T20:50:31.471Z,35.23
2023-02-11T20:53:16.057Z,31.57
2023-02-11T20:56:02.782Z,24.00
2023-02-11T20:58:45.991Z,24.77
2023-02-11T21:01:31.351Z,24.97
2023-02-11T21:04:16.595Z,23.13
2023-02-11T21:07:01.753Z,21.20
2023-02-11T21:09:47.510Z,24.53
2023-02-11T21:12:30.654Z,37.97
2023-02-11T21:15:13.792Z,64.33
2023-02-11T21:17:57.189Z,67.33
2023-02-11T21:20:40.412Z,74.07
2023-02-11T21:23:23.632Z,99.03
2023-02-11T21:26:08.897Z,79.90
2023-02-11T21:28:53.250Z,92.83
2023-02-11T21:31:37.662Z,87.63
2023-02-11T21:34:22.395Z,88.53
2023-02-11T21:37:05.518Z,81.83
2023-02-11T21:39:48.535Z,89.40
2023-02-11T21:42:33.190Z,91.17
2023-02-11T21:45:16.718Z,87.37
2023-02-11T21:48:00.153Z,102.17
2023-02-11T21:50:44.399Z,113.03
2023-02-11T21:53:27.773Z,104.50
2023-02-11T21:56:13.768Z,78.77
2023-02-11T21:59:00.284Z,59.23
2023-02-11T22:01:43.670Z,63.27
2023-02-11T22:04:27.051Z,59.17
2023-02-11T22:07:10.242Z,59.60
2023-02-11T22:09:54.868Z,66.73
2023-02-11T22:12:38.079Z,59.20
2023-02-11T22:15:22.760Z,84.37
2023-02-11T22:18:06.238Z,93.13
2023-02-11T22:20:59.132Z,84.73
2023-02-11T22:23:42.443Z,58.67
2023-02-11T22:26:27.110Z,65.10
2023-02-11T22:29:10.931Z,55.77
2023-02-11T22:31:55.596Z,54.63
2023-02-11T22:34:38.863Z,54.97
2023-02-11T22:37:22.138Z,55.50
2023-02-11T22:40:06.001Z,59.40
2023-02-11T22:42:49.117Z,49.77
2023-02-11T22:45:35.051Z,57.40
2023-02-11T22:48:23.014Z,68.03
2023-02-11T22:51:08.079Z,58.93
2023-02-11T22:53:53.324Z,67.60
2023-02-11T22:56:37.108Z,66.43
2023-02-11T22:59:20.370Z,63.40
2023-02-11T23:02:04.222Z,63.33
2023-02-11T23:04:49.991Z,68.90
2023-02-11T23:07:33.421Z,67.00
2023-02-11T23:10:16.595Z,61.60
2023-02-11T23:12:59.834Z,70.30
2023-02-11T23:15:45.248Z,63.73
2023-02-11T23:18:28.459Z,67.83
2023-02-11T23:21:17.062Z,63.30
2023-02-11T23:24:02.336Z,74.47
2023-02-11T23:26:45.643Z,55.50
2023-02-11T23:29:29.126Z,55.07
2023-02-11T23:32:12.944Z,57.17
2023-02-11T23:34:56.134Z,59.77
2023-02-11T23:37:40.791Z,53.07
2023-02-11T23:40:24.191Z,53.80
2023-02-11T23:43:07.291Z,49.13
2023-02-11T23:45:52.314Z,39.33
2023-02-11T23:48:37.908Z,48.73
2023-02-11T23:51:21.658Z,47.00
2023-02-11T23:54:06.217Z,47.37
2023-02-11T23:56:49.260Z,44.17
2023-02-11T23:59:32.505Z,37.00
